createdAt,value
2023-02-09T00:00:15.839Z,23.33
2023-02-09T00:04:19.572Z,21.73
2023-02-09T00:08:21.460Z,20.73
2023-02-09T00:12:41.965Z,23.77
2023-02-09T00:16:44.170Z,23.43
2023-02-09T00:20:46.436Z,24.80
2023-02-09T00:24:48.580Z,26.43
2023-02-09T00:28:50.520Z,26.50
2023-02-09T00:32:55.327Z,26.17
2023-02-09T00:36:57.353Z,25.00
2023-02-09T00:40:59.342Z,23.80
2023-02-09T00:45:01.257Z,25.53
2023-02-09T00:49:03.950Z,22.97
2023-02-09T00:53:05.830Z,21.10
2023-02-09T00:57:07.806Z,21.00
2023-02-09T01:01:13.582Z,21.33
2023-02-09T01:05:15.803Z,20.33
2023-02-09T01:09:19.661Z,24.20
2023-02-09T01:13:21.679Z,23.53
2023-02-09T01:17:24.863Z,22.77
2023-02-09T01:21:26.794Z,24.17
2023-02-09T01:25:28.748Z,19.87
2023-02-09T01:29:30.627Z,21.33
2023-02-09T01:33:32.665Z,21.17
2023-02-09T01:37:35.909Z,22.87
2023-02-09T01:41:38.187Z,19.10
2023-02-09T01:46:06.651Z,20.57
2023-02-09T01:50:09.128Z,23.00
2023-02-09T01:54:17.121Z,27.90
2023-02-09T01:58:22.306Z,19.47
2023-02-09T02:02:24.675Z,20.27
2023-02-09T02:06:26.776Z,17.23
2023-02-09T02:10:29.533Z,19.63
2023-02-09T02:14:36.041Z,24.53
2023-02-09T02:18:56.075Z,20.13
2023-02-09T02:23:08.457Z,17.97
2023-02-09T02:27:19.406Z,21.23
2023-02-09T02:31:42.853Z,19.20
2023-02-09T02:36:14.696Z,16.30
2023-02-09T02:40:25.913Z,18.77
2023-02-09T02:44:30.366Z,17.60
2023-02-09T02:48:41.604Z,19.53
2023-02-09T02:52:47.045Z,21.07
2023-02-09T02:56:59.343Z,19.80
2023-02-09T03:01:02.950Z,16.23
2023-02-09T03:05:07.145Z,17.27
2023-02-09T03:09:09.281Z,18.97
2023-02-09T03:13:32.436Z,15.97
2023-02-09T03:22:05.720Z,27.83
2023-02-09T03:26:13.150Z,21.00
2023-02-09T03:30:17.467Z,19.17
2023-02-09T03:34:21.152Z,18.43
2023-02-09T03:38:23.794Z,17.53
2023-02-09T03:42:25.820Z,18.03
2023-02-09T03:46:27.857Z,20.00
2023-02-09T03:50:30.148Z,15.73
2023-02-09T03:54:33.228Z,17.83
2023-02-09T03:58:36.602Z,15.00
2023-02-09T04:02:38.623Z,18.37
2023-02-09T04:06:40.578Z,14.93
2023-02-09T04:10:42.497Z,17.10
2023-02-09T04:14:44.383Z,19.27
2023-02-09T04:18:46.798Z,21.60
2023-02-09T04:22:48.692Z,21.30
2023-02-09T04:26:50.664Z,18.23
2023-02-09T04:30:55.176Z,17.80
2023-02-09T04:34:57.055Z,16.57
2023-02-09T04:38:58.982Z,18.13
2023-02-09T04:43:00.910Z,18.13
2023-02-09T04:47:02.957Z,17.57
2023-02-09T04:51:05.045Z,16.70
2023-02-09T04:55:07.115Z,22.67
2023-02-09T04:59:28.520Z,15.53
2023-02-09T05:03:31.239Z,15.03
2023-02-09T05:07:33.174Z,18.80
2023-02-09T05:11:35.171Z,18.33
2023-02-09T05:15:37.131Z,18.10
2023-02-09T05:19:39.125Z,15.83
2023-02-09T05:23:41.733Z,15.27
2023-02-09T05:27:43.535Z,24.83
2023-02-09T05:31:45.461Z,23.57
2023-02-09T05:35:47.458Z,24.90
2023-02-09T05:39:51.119Z,207.37
2023-02-09T05:43:53.038Z,32.77
2023-02-09T05:47:54.992Z,19.73
2023-02-09T05:51:56.909Z,18.60
2023-02-09T05:55:58.813Z,19.73
2023-02-09T06:00:00.877Z,53.37
2023-02-09T06:04:02.933Z,33.50
2023-02-09T06:08:05.024Z,22.10
2023-02-09T06:12:07.013Z,21.03
2023-02-09T06:16:09.207Z,19.00
2023-02-09T06:20:11.755Z,15.90
2023-02-09T06:24:14.968Z,18.83
2023-02-09T06:28:16.972Z,16.37
2023-02-09T06:32:18.996Z,20.60
2023-02-09T06:36:20.971Z,19.53
2023-02-09T06:40:22.914Z,21.10
2023-02-09T06:44:24.856Z,22.10
2023-02-09T06:48:26.859Z,16.07
2023-02-09T06:52:29.162Z,20.70
2023-02-09T06:56:31.217Z,18.10
2023-02-09T07:00:33.138Z,17.80
2023-02-09T07:04:35.058Z,17.13
2023-02-09T07:08:37.013Z,16.07
2023-02-09T07:12:40.742Z,23.30
2023-02-09T07:16:42.666Z,19.10
2023-02-09T07:20:44.920Z,18.90
2023-02-09T07:24:47.099Z,15.57
2023-02-09T07:28:48.999Z,14.80
2023-02-09T07:32:50.936Z,21.03
2023-02-09T07:36:52.866Z,13.73
2023-02-09T07:40:54.818Z,17.17
2023-02-09T07:44:56.746Z,18.20
2023-02-09T07:49:01.268Z,21.73
2023-02-09T07:53:03.434Z,22.07
2023-02-09T07:57:05.362Z,21.73
2023-02-09T08:01:10.759Z,22.60
2023-02-09T08:05:20.647Z,21.77
2023-02-09T08:09:22.661Z,25.93
2023-02-09T08:13:27.516Z,23.23
2023-02-09T08:17:29.665Z,25.03
2023-02-09T08:21:35.532Z,25.57
2023-02-09T08:25:37.888Z,38.17
2023-02-09T08:29:40.070Z,28.23
2023-02-09T08:33:43.195Z,23.07
2023-02-09T08:37:45.142Z,17.87
2023-02-09T08:41:47.132Z,21.93
2023-02-09T08:45:49.513Z,17.23
2023-02-09T08:49:51.868Z,24.20
2023-02-09T08:53:53.886Z,25.67
2023-02-09T08:57:56.034Z,22.63
2023-02-09T09:01:57.969Z,22.27
2023-02-09T09:06:05.612Z,23.10
2023-02-09T09:10:11.309Z,24.77
2023-02-09T09:14:13.216Z,23.73
2023-02-09T09:18:15.184Z,17.80
2023-02-09T09:22:17.169Z,29.30
2023-02-09T09:26:19.232Z,29.33
2023-02-09T09:30:21.314Z,30.20
2023-02-09T09:34:23.290Z,38.23
2023-02-09T09:38:25.210Z,40.43
2023-02-09T09:42:40.347Z,46.57
2023-02-09T09:46:46.982Z,41.73
2023-02-09T09:50:51.338Z,82.93
2023-02-09T09:54:53.322Z,160.33
2023-02-09T09:58:55.517Z,66.03
2023-02-09T10:02:57.507Z,52.00
2023-02-09T10:07:02.656Z,42.33
2023-02-09T10:11:09.247Z,49.37
2023-02-09T10:15:29.455Z,41.70
2023-02-09T10:19:32.670Z,46.53
2023-02-09T10:23:46.802Z,47.30
2023-02-09T10:27:48.779Z,47.80
2023-02-09T10:31:59.990Z,57.30
2023-02-09T10:36:06.022Z,56.70
2023-02-09T10:40:18.176Z,46.07
2023-02-09T10:44:35.635Z,58.20
2023-02-09T10:48:43.596Z,57.83
2023-02-09T10:52:58.030Z,54.13
2023-02-09T10:57:01.901Z,98.47
2023-02-09T11:01:10.183Z,52.60
2023-02-09T11:05:27.390Z,58.03
2023-02-09T11:09:39.507Z,59.63
2023-02-09T11:13:42.467Z,54.47
2023-02-09T11:17:53.097Z,54.40
2023-02-09T11:22:13.306Z,56.60
2023-02-09T11:26:30.402Z,58.23
2023-02-09T11:31:23.297Z,59.63
2023-02-09T11:35:40.100Z,60.17
2023-02-09T11:39:54.351Z,54.23
2023-02-09T11:44:01.115Z,55.90
2023-02-09T11:48:09.506Z,64.17
2023-02-09T11:52:16.807Z,58.87
2023-02-09T11:56:21.453Z,57.77
2023-02-09T12:00:27.962Z,57.37
2023-02-09T12:04:49.051Z,52.80
2023-02-09T12:09:03.199Z,56.50
2023-02-09T12:13:33.117Z,53.73
2023-02-09T12:17:50.102Z,53.93
2023-02-09T12:21:52.016Z,53.40
2023-02-09T12:25:55.265Z,50.63
2023-02-09T12:29:57.216Z,52.60
2023-02-09T12:33:59.077Z,51.77
2023-02-09T12:38:19.059Z,60.40
2023-02-09T12:42:26.747Z,51.27
2023-02-09T12:46:28.672Z,63.20
2023-02-09T12:50:45.092Z,49.37
2023-02-09T12:54:58.310Z,52.87
2023-02-09T12:59:15.879Z,52.83
2023-02-09T13:03:20.351Z,51.37
2023-02-09T13:07:33.134Z,50.10
2023-02-09T13:11:49.253Z,51.40
2023-02-09T13:15:51.039Z,53.20
2023-02-09T13:20:13.599Z,55.67
2023-02-09T13:24:18.632Z,55.20
2023-02-09T13:28:26.689Z,58.53
2023-02-09T13:32:43.757Z,58.33
2023-02-09T13:36:55.034Z,56.73
2023-02-09T13:40:58.357Z,52.53
2023-02-09T13:45:00.621Z,58.57
2023-02-09T13:49:15.645Z,56.43
2023-02-09T13:53:19.920Z,54.70
2023-02-09T13:57:33.357Z,59.80
2023-02-09T14:01:37.284Z,59.30
2023-02-09T14:06:08.164Z,55.17
2023-02-09T14:10:16.785Z,57.70
2023-02-09T14:14:50.591Z,60.50
2023-02-09T14:19:02.890Z,54.93
2023-02-09T14:23:15.586Z,55.47
2023-02-09T14:27:24.020Z,65.57
2023-02-09T14:31:26.660Z,61.50
2023-02-09T14:35:31.361Z,55.57
2023-02-09T14:39:33.322Z,68.20
2023-02-09T14:43:35.542Z,60.17
2023-02-09T14:47:40.876Z,59.20
2023-02-09T14:51:43.752Z,58.70
2023-02-09T14:55:46.246Z,58.37
2023-02-09T14:59:48.446Z,60.80
2023-02-09T15:03:50.450Z,58.10
2023-02-09T15:07:55.868Z,54.40
2023-02-09T15:12:06.878Z,59.77
2023-02-09T15:16:09.654Z,58.93
2023-02-09T15:20:17.665Z,60.23
2023-02-09T15:24:19.625Z,57.63
2023-02-09T15:28:28.236Z,59.03
2023-02-09T15:32:30.544Z,56.33
2023-02-09T15:36:33.258Z,52.97
2023-02-09T15:41:02.272Z,54.73
2023-02-09T15:45:52.278Z,60.47
2023-02-09T15:49:54.287Z,61.83
2023-02-09T15:53:59.151Z,56.63
2023-02-09T15:58:01.313Z,67.93
2023-02-09T16:02:03.276Z,59.13
2023-02-09T16:06:19.806Z,59.90
2023-02-09T16:10:24.536Z,72.73
2023-02-09T16:14:27.337Z,64.07
2023-02-09T16:18:29.332Z,60.47
2023-02-09T16:22:31.275Z,68.07
2023-02-09T16:26:34.273Z,93.37
2023-02-09T16:30:46.629Z,80.33
2023-02-09T16:34:49.530Z,86.97
2023-02-09T16:38:51.540Z,68.63
2023-02-09T16:42:54.083Z,72.23
2023-02-09T16:46:58.814Z,74.87
2023-02-09T16:51:00.804Z,312.97
2023-02-09T16:55:06.472Z,168.87
2023-02-09T16:59:12.647Z,126.63
2023-02-09T17:03:16.391Z,80.40
2023-02-09T17:07:18.378Z,73.40
2023-02-09T17:11:25.811Z,68.07
2023-02-09T17:15:31.660Z,75.23
2023-02-09T17:19:46.874Z,85.27
2023-02-09T17:23:50.586Z,82.53
2023-02-09T17:27:52.925Z,109.53
2023-02-09T17:31:54.948Z,103.63
2023-02-09T17:36:28.746Z,87.20
2023-02-09T17:40:22.305Z,77.60
2023-02-09T17:44:44.686Z,69.10
2023-02-09T17:48:48.585Z,59.23
2023-02-09T17:52:52.176Z,63.30
2023-02-09T17:56:53.965Z,55.50
2023-02-09T18:00:56.686Z,60.43
2023-02-09T18:04:58.626Z,68.73
2023-02-09T18:09:19.153Z,68.53
2023-02-09T18:13:21.505Z,73.37
2023-02-09T18:17:23.508Z,71.00
2023-02-09T18:21:25.508Z,68.03
2023-02-09T18:25:33.229Z,68.17
2023-02-09T18:29:35.683Z,56.87
2023-02-09T18:33:38.247Z,66.67
2023-02-09T18:37:40.140Z,77.07
2023-02-09T18:41:42.496Z,75.53
2023-02-09T18:45:45.029Z,75.83
2023-02-09T18:49:47.295Z,62.43
2023-02-09T18:53:51.248Z,63.80
2023-02-09T18:57:53.185Z,59.33
2023-02-09T19:01:55.179Z,53.37
2023-02-09T19:05:57.127Z,48.83
2023-02-09T19:09:59.078Z,47.70
2023-02-09T19:14:19.401Z,46.83
2023-02-09T19:18:21.373Z,53.57
2023-02-09T19:22:23.313Z,69.87
2023-02-09T19:26:25.286Z,59.97
2023-02-09T19:30:28.549Z,71.93
2023-02-09T19:34:32.801Z,63.43
2023-02-09T19:38:34.761Z,56.47
2023-02-09T19:42:37.058Z,61.37
2023-02-09T19:46:39.941Z,63.20
2023-02-09T19:50:41.965Z,58.77
2023-02-09T19:54:43.905Z,61.10
2023-02-09T19:58:46.201Z,58.10
2023-02-09T20:02:48.752Z,51.97
2023-02-09T20:06:50.884Z,60.97
2023-02-09T20:10:52.881Z,96.43
2023-02-09T20:14:55.137Z,62.63
2023-02-09T20:18:57.249Z,63.43
2023-02-09T20:22:59.215Z,51.90
2023-02-09T20:27:01.366Z,67.90
2023-02-09T20:31:03.438Z,55.00
2023-02-09T20:35:05.902Z,50.30
2023-02-09T20:39:10.942Z,46.83
2023-02-09T20:43:31.470Z,53.13
2023-02-09T20:47:33.418Z,44.43
2023-02-09T20:51:35.377Z,44.97
2023-02-09T20:55:37.392Z,44.90
2023-02-09T20:59:39.784Z,44.77
2023-02-09T21:03:41.962Z,42.07
2023-02-09T21:07:44.261Z,36.63
2023-02-09T21:11:46.165Z,38.43
2023-02-09T21:15:48.860Z,45.67
2023-02-09T21:19:50.858Z,42.13
2023-02-09T21:23:53.345Z,43.90
2023-02-09T21:27:59.778Z,40.17
2023-02-09T21:32:03.956Z,40.90
2023-02-09T21:36:07.436Z,44.40
2023-02-09T21:40:12.127Z,41.43
2023-02-09T21:44:15.086Z,43.73
2023-02-09T21:48:17.062Z,44.73
2023-02-09T21:52:19.007Z,41.63
2023-02-09T21:56:21.011Z,43.80
2023-02-09T22:00:23.062Z,47.90
2023-02-09T22:04:25.817Z,41.63
2023-02-09T22:08:29.042Z,44.90
2023-02-09T22:12:31.133Z,47.30
2023-02-09T22:16:33.119Z,41.83
2023-02-09T22:20:35.322Z,44.07
2023-02-09T22:24:37.718Z,44.80
2023-02-09T22:28:40.136Z,50.20
2023-02-09T22:32:42.120Z,53.90
2023-02-09T22:36:44.048Z,41.53
2023-02-09T22:40:46.203Z,44.97
2023-02-09T22:44:48.218Z,38.93
2023-02-09T22:48:55.417Z,47.63
2023-02-09T22:52:57.359Z,42.60
2023-02-09T22:56:59.287Z,46.27
2023-02-09T23:01:01.311Z,49.50
2023-02-09T23:05:03.953Z,41.60
2023-02-09T23:09:07.610Z,40.03
2023-02-09T23:13:09.500Z,38.83
2023-02-09T23:17:11.521Z,39.73
2023-02-09T23:21:13.548Z,42.70
2023-02-09T23:25:15.755Z,39.57
2023-02-09T23:29:18.466Z,38.77
2023-02-09T23:33:20.457Z,43.30
2023-02-09T23:37:36.728Z,43.13
2023-02-09T23:41:39.705Z,39.93
2023-02-09T23:45:41.620Z,42.50
2023-02-09T23:49:44.797Z,42.63
2023-02-09T23:53:47.882Z,41.23
2023-02-09T23:57:50.035Z,48.50
